메인 페이지
METAR-TAF:

METAR-TAF

공항 :

다마스쿠스 국제공항

다마스쿠스, 시리아

위도: 33-25N, 경도: 036-31E, 고도: 608m

현재 날씨관측

예보는 2 시간 2분 전, 09:00시(UTC)에 발표되었습니다.
서북서18kt
온도 20°C
습도 32%
기압 1014 hPa
시정 10km 이상
고도 3000ft 상공 구름 보통
고도 10000ft 상공 구름 많음

METAR: OSDI 300900Z 30018KT 9999 SCT030 BKN100 20/03 Q1014

시각: 14:02 (11:02 UTC)

예보

예보 대상 시간: 30일 00시부터 31일 06시까지 (UTC)
남서15kt
시정 10km 이상
고도 3000ft 상공 구름 보통
고도 10000ft 상공 구름 많음
일시적
30일 00시부터 30일 24시까지 (UTC)
20kt, 순간 최대 풍속 35kt
시정: 6000m
고도 2500ft 상공 구름 조금
고도 3000ft 상공 구름 많음
고도 10000ft 상공 흐림
소나기

TAF: OSDI 3000/3106 22015KT 9999 SCT030 BKN100 TEMPO 3000/3024 28020G35KT 6000 SHRA FEW025 CB BKN030 OVC100

4,000개 이상의 공항 관측 자료 및 예보 (METAR 및 TAF 보고).

지도상에서 검색 가능한 기상관측소가 노란 점과 빨간 점으로 표시되어 있습니다.

기상관측소 명을 보려면 표시 위로 마우스를 이동하세요.

날씨 관측과 예보를 보려면 클릭하세요.

지도 변경 : 확대하려면 엑스 표시가 있는 녹색 버튼, 축소하려면 빼기 표시가 있는 녹색 버튼, 다음 페이지의 지도를 보려면 녹색 화살표를 클릭하세요.


METAR-TAF: